Time,TemperatureF,DewpointF,PressureIn,WindDirection,WindDirectionDegrees,WindSpeedMPH,WindSpeedGustMPH,Humidity,HourlyPrecipIn,Conditions,Clouds,dailyrainin,SolarRadiationWatts/m^2,SoftwareType,DateUTC
2013-06-02 00:01:00,69.0,42.0,-100.00,NNW,331,6.0,12.0,38,0.00,,,0.00,0.000000,,2013-06-02 07:01:00,
2013-06-02 00:11:00,69.0,42.0,-100.00,NNW,331,6.0,12.0,38,0.00,,,0.00,0.000000,,2013-06-02 07:11:00,
2013-06-02 00:21:00,69.0,42.0,-100.00,NNW,331,6.0,12.0,38,0.00,,,0.00,0.000000,,2013-06-02 07:21:00,
2013-06-02 00:52:00,68.0,43.0,-100.00,NNW,336,7.0,12.0,41,0.00,,,0.00,0.000000,,2013-06-02 07:52:00,
2013-06-02 01:01:00,68.0,43.0,-100.00,NNW,336,7.0,12.0,41,0.00,,,0.00,0.000000,,2013-06-02 08:01:00,
2013-06-02 01:11:00,68.0,43.0,-100.00,NNW,336,7.0,12.0,41,0.00,,,0.00,0.000000,,2013-06-02 08:11:00,
2013-06-02 01:21:00,68.0,43.0,-100.00,NNW,336,7.0,12.0,41,0.00,,,0.00,0.000000,,2013-06-02 08:21:00,
2013-06-02 01:52:00,66.0,43.0,-100.00,NNE,12,4.0,14.0,44,0.00,,,0.00,0.000000,,2013-06-02 08:52:00,
2013-06-02 02:01:00,66.0,43.0,-100.00,NNE,12,4.0,14.0,44,0.00,,,0.00,0.000000,,2013-06-02 09:01:00,
2013-06-02 02:11:00,66.0,43.0,-100.00,NNE,12,4.0,14.0,44,0.00,,,0.00,0.000000,,2013-06-02 09:11:00,
2013-06-02 02:21:00,66.0,43.0,-100.00,NNE,12,4.0,14.0,44,0.00,,,0.00,0.000000,,2013-06-02 09:21:00,
2013-06-02 02:53:00,65.0,44.0,-100.00,NNE,23,5.0,13.0,46,0.00,,,-99.99,0.000000,,2013-06-02 09:53:00,
2013-06-02 03:02:00,65.0,44.0,-100.00,NNE,23,5.0,13.0,46,0.00,,,-99.99,0.000000,,2013-06-02 10:02:00,
2013-06-02 03:12:00,65.0,44.0,-100.00,NNE,23,5.0,13.0,46,0.00,,,-99.99,0.000000,,2013-06-02 10:12:00,
2013-06-02 03:52:00,63.0,44.0,-100.00,NNE,21,4.0,11.0,49,0.00,,,0.00,0.000000,,2013-06-02 10:52:00,
2013-06-02 04:02:00,63.0,44.0,-100.00,NNE,21,4.0,11.0,49,0.00,,,0.00,0.000000,,2013-06-02 11:02:00,
2013-06-02 04:12:00,63.0,44.0,-100.00,NNE,21,4.0,11.0,49,0.00,,,0.00,0.000000,,2013-06-02 11:12:00,
2013-06-02 04:21:00,63.0,44.0,-100.00,NNE,21,4.0,11.0,49,0.00,,,0.00,0.000000,,2013-06-02 11:21:00,
2013-06-02 04:52:00,61.0,44.0,-100.00,NNE,31,3.0,8.0,53,0.00,,,0.00,0.000000,,2013-06-02 11:52:00,
2013-06-02 05:01:00,61.0,44.0,-100.00,NNE,31,3.0,8.0,53,0.00,,,0.00,0.000000,,2013-06-02 12:01:00,
2013-06-02 05:11:00,61.0,44.0,-100.00,NNE,31,3.0,8.0,53,0.00,,,0.00,0.000000,,2013-06-02 12:11:00,
2013-06-02 05:21:00,61.0,44.0,-100.00,NNE,31,3.0,8.0,53,0.00,,,0.00,0.000000,,2013-06-02 12:21:00,
2013-06-02 05:52:00,61.0,44.0,-100.00,North,357,4.0,14.0,54,0.00,,,0.00,0.000000,,2013-06-02 12:52:00,
2013-06-02 06:01:00,61.0,44.0,-100.00,North,357,4.0,14.0,54,0.00,,,0.00,0.000000,,2013-06-02 13:01:00,
2013-06-02 06:52:00,61.0,45.0,-100.00,NNE,32,3.0,6.0,56,-99.99,,,0.00,18.000000,,2013-06-02 13:52:00,
2013-06-02 07:21:00,61.0,45.0,-100.00,NNE,32,3.0,6.0,56,-99.99,,,0.00,18.000000,,2013-06-02 14:21:00,
2013-06-02 07:52:00,63.0,45.0,-100.00,NNW,332,3.0,7.0,52,0.00,,,0.00,78.000000,,2013-06-02 14:52:00,
2013-06-02 08:11:00,63.0,45.0,-100.00,NNW,332,3.0,7.0,52,0.00,,,0.00,78.000000,,2013-06-02 15:11:00,
2013-06-02 08:21:00,63.0,45.0,-100.00,NNW,332,3.0,7.0,52,0.00,,,0.00,78.000000,,2013-06-02 15:21:00,
2013-06-02 08:53:00,66.0,46.0,-100.00,North,9,4.0,11.0,49,0.00,,,0.00,292.000000,,2013-06-02 15:53:00,
2013-06-02 09:03:00,66.0,46.0,-100.00,North,9,4.0,11.0,49,0.00,,,0.00,292.000000,,2013-06-02 16:03:00,
2013-06-02 09:13:00,66.0,46.0,-100.00,North,9,4.0,11.0,49,0.00,,,0.00,292.000000,,2013-06-02 16:13:00,
2013-06-02 09:23:00,66.0,46.0,-100.00,North,9,4.0,11.0,49,0.00,,,0.00,292.000000,,2013-06-02 16:23:00,
2013-06-02 09:52:00,68.0,46.0,-100.00,WNW,285,6.0,10.0,46,0.00,,,0.00,508.000000,,2013-06-02 16:52:00,
2013-06-02 10:02:00,68.0,46.0,-100.00,WNW,285,6.0,10.0,46,0.00,,,0.00,508.000000,,2013-06-02 17:02:00,
2013-06-02 10:12:00,68.0,46.0,-100.00,WNW,285,6.0,10.0,46,0.00,,,0.00,508.000000,,2013-06-02 17:12:00,
2013-06-02 10:22:00,68.0,46.0,-100.00,WNW,285,6.0,10.0,46,0.00,,,0.00,508.000000,,2013-06-02 17:22:00,
2013-06-02 10:52:00,72.0,47.0,-100.00,West,262,8.0,13.0,41,0.00,,,0.00,677.000000,,2013-06-02 17:52:00,
2013-06-02 11:01:00,72.0,47.0,-100.00,West,262,8.0,13.0,41,0.00,,,0.00,677.000000,,2013-06-02 18:01:00,
2013-06-02 11:11:00,72.0,47.0,-100.00,West,262,8.0,13.0,41,0.00,,,0.00,677.000000,,2013-06-02 18:11:00,
2013-06-02 11:21:00,72.0,47.0,-100.00,West,262,8.0,13.0,41,0.00,,,0.00,677.000000,,2013-06-02 18:21:00,
2013-06-02 11:52:00,77.0,48.0,-100.00,WSW,246,6.0,12.0,36,0.00,,,0.00,804.000000,,2013-06-02 18:52:00,
2013-06-02 12:01:00,77.0,48.0,-100.00,WSW,246,6.0,12.0,36,0.00,,,0.00,804.000000,,2013-06-02 19:01:00,
2013-06-02 12:11:00,77.0,48.0,-100.00,WSW,246,6.0,12.0,36,0.00,,,0.00,804.000000,,2013-06-02 19:11:00,
2013-06-02 12:21:00,77.0,48.0,-100.00,WSW,246,6.0,12.0,36,0.00,,,0.00,804.000000,,2013-06-02 19:21:00,
2013-06-02 12:52:00,80.0,48.0,-100.00,SSW,198,8.0,12.0,33,0.00,,,0.00,877.000000,,2013-06-02 19:52:00,
2013-06-02 13:02:00,80.0,48.0,-100.00,SSW,198,8.0,12.0,33,0.00,,,0.00,877.000000,,2013-06-02 20:02:00,
2013-06-02 13:11:00,80.0,48.0,-100.00,SSW,198,8.0,12.0,33,0.00,,,0.00,877.000000,,2013-06-02 20:11:00,
2013-06-02 13:21:00,80.0,48.0,-100.00,SSW,198,8.0,12.0,33,0.00,,,0.00,877.000000,,2013-06-02 20:21:00,
2013-06-02 13:52:00,81.0,51.0,-100.00,SSW,208,10.0,15.0,35,0.00,,,0.00,907.000000,,2013-06-02 20:52:00,
2013-06-02 14:01:00,81.0,51.0,-100.00,SSW,208,10.0,15.0,35,0.00,,,0.00,907.000000,,2013-06-02 21:01:00,
2013-06-02 14:11:00,81.0,51.0,-100.00,SSW,208,10.0,15.0,35,0.00,,,0.00,907.000000,,2013-06-02 21:11:00,
2013-06-02 14:21:00,81.0,51.0,-100.00,SSW,208,10.0,15.0,35,0.00,,,0.00,907.000000,,2013-06-02 21:21:00,
2013-06-02 14:53:00,80.0,47.0,-100.00,SSW,211,11.0,16.0,32,0.00,,,0.00,899.000000,,2013-06-02 21:53:00,
2013-06-02 15:03:00,80.0,47.0,-100.00,SSW,211,11.0,16.0,32,0.00,,,0.00,899.000000,,2013-06-02 22:03:00,
2013-06-02 15:12:00,80.0,47.0,-100.00,SSW,211,11.0,16.0,32,0.00,,,0.00,899.000000,,2013-06-02 22:12:00,
2013-06-02 15:22:00,80.0,47.0,-100.00,SSW,211,11.0,16.0,32,0.00,,,0.00,899.000000,,2013-06-02 22:22:00,
2013-06-02 15:52:00,80.0,48.0,-100.00,SSW,201,11.0,19.0,33,0.00,,,0.00,837.000000,,2013-06-02 22:52:00,
2013-06-02 16:02:00,80.0,48.0,-100.00,SSW,201,11.0,19.0,33,0.00,,,0.00,837.000000,,2013-06-02 23:02:00,
2013-06-02 16:12:00,80.0,48.0,-100.00,SSW,201,11.0,19.0,33,0.00,,,0.00,837.000000,,2013-06-02 23:12:00,
2013-06-02 16:22:00,80.0,48.0,-100.00,SSW,201,11.0,19.0,33,0.00,,,0.00,837.000000,,2013-06-02 23:22:00,
2013-06-02 16:52:00,80.0,47.0,-100.00,SSW,205,11.0,16.0,31,0.00,,,0.00,726.000000,,2013-06-02 23:52:00,
2013-06-02 17:01:00,80.0,47.0,-100.00,SSW,205,11.0,16.0,31,0.00,,,0.00,726.000000,,2013-06-03 00:01:00,
2013-06-02 17:11:00,80.0,47.0,-100.00,SSW,205,11.0,16.0,31,0.00,,,0.00,726.000000,,2013-06-03 00:11:00,
2013-06-02 17:21:00,80.0,47.0,-100.00,SSW,205,11.0,16.0,31,0.00,,,0.00,726.000000,,2013-06-03 00:21:00,
2013-06-02 17:52:00,79.0,48.0,-100.00,SSW,205,11.0,15.0,34,0.00,,,0.00,579.000000,,2013-06-03 00:52:00,
2013-06-02 18:01:00,79.0,48.0,-100.00,SSW,205,11.0,15.0,34,0.00,,,0.00,579.000000,,2013-06-03 01:01:00,
2013-06-02 18:11:00,79.0,48.0,-100.00,SSW,205,11.0,15.0,34,0.00,,,0.00,579.000000,,2013-06-03 01:11:00,
2013-06-02 18:21:00,79.0,48.0,-100.00,SSW,205,11.0,15.0,34,0.00,,,0.00,579.000000,,2013-06-03 01:21:00,
2013-06-02 18:52:00,77.0,46.0,-100.00,SSW,196,10.0,13.0,34,0.00,,,0.00,408.000000,,2013-06-03 01:52:00,
2013-06-02 19:02:00,77.0,46.0,-100.00,SSW,196,10.0,13.0,34,0.00,,,0.00,408.000000,,2013-06-03 02:02:00,
2013-06-02 19:12:00,77.0,46.0,-100.00,SSW,196,10.0,13.0,34,0.00,,,0.00,408.000000,,2013-06-03 02:12:00,
2013-06-02 19:22:00,77.0,46.0,-100.00,SSW,196,10.0,13.0,34,0.00,,,0.00,408.000000,,2013-06-03 02:22:00,
2013-06-02 19:52:00,74.0,47.0,-100.00,South,186,6.0,13.0,39,0.00,,,0.00,230.000000,,2013-06-03 02:52:00,
2013-06-02 20:02:00,74.0,47.0,-100.00,South,186,6.0,13.0,39,0.00,,,0.00,230.000000,,2013-06-03 03:02:00,
2013-06-02 20:12:00,74.0,47.0,-100.00,South,186,6.0,13.0,39,0.00,,,0.00,230.000000,,2013-06-03 03:12:00,
2013-06-02 20:22:00,74.0,47.0,-100.00,South,186,6.0,13.0,39,0.00,,,0.00,230.000000,,2013-06-03 03:22:00,
2013-06-02 20:53:00,68.0,49.0,-100.00,South,175,4.0,8.0,50,0.00,,,0.00,64.000000,,2013-06-03 03:53:00,
2013-06-02 21:03:00,68.0,49.0,-100.00,South,175,4.0,8.0,50,0.00,,,0.00,64.000000,,2013-06-03 04:03:00,
2013-06-02 21:12:00,68.0,49.0,-100.00,South,175,4.0,8.0,50,0.00,,,0.00,64.000000,,2013-06-03 04:12:00,
2013-06-02 21:23:00,68.0,49.0,-100.00,South,175,4.0,8.0,50,0.00,,,0.00,64.000000,,2013-06-03 04:23:00,
2013-06-02 21:53:00,62.0,49.0,-100.00,South,187,2.0,5.0,63,0.00,,,0.00,1.000000,,2013-06-03 04:53:00,
2013-06-02 22:02:00,62.0,49.0,-100.00,South,187,2.0,5.0,63,0.00,,,0.00,1.000000,,2013-06-03 05:02:00,
2013-06-02 22:12:00,62.0,49.0,-100.00,South,187,2.0,5.0,63,0.00,,,0.00,1.000000,,2013-06-03 05:12:00,
2013-06-02 22:22:00,62.0,49.0,-100.00,South,187,2.0,5.0,63,0.00,,,0.00,1.000000,,2013-06-03 05:22:00,
2013-06-02 22:52:00,58.0,49.0,-100.00,SW,233,3.0,5.0,71,0.00,,,0.00,0.000000,,2013-06-03 05:52:00,
2013-06-02 23:02:00,58.0,49.0,-100.00,SW,233,3.0,5.0,71,0.00,,,0.00,0.000000,,2013-06-03 06:02:00,
2013-06-02 23:12:00,58.0,49.0,-100.00,SW,233,3.0,5.0,71,0.00,,,0.00,0.000000,,2013-06-03 06:12:00,
2013-06-02 23:22:00,58.0,49.0,-100.00,SW,233,3.0,5.0,71,0.00,,,0.00,0.000000,,2013-06-03 06:22:00,
2013-06-02 23:52:00,56.0,49.0,-100.00,SW,229,4.0,5.0,77,0.00,,,0.00,0.000000,,2013-06-03 06:52:00,